sensor_id;sensor_type;location;lat;lon;timestamp;temperature;humidity
285;DHT22;127;48.770;9.212;2023-03-24T00:01:16;13.30;99.90
285;DHT22;127;48.770;9.212;2023-03-24T00:03:45;13.20;99.90
285;DHT22;127;48.770;9.212;2023-03-24T00:06:17;13.30;99.90
285;DHT22;127;48.770;9.212;2023-03-24T00:08:47;13.20;99.90
285;DHT22;127;48.770;9.212;2023-03-24T00:11:16;13.20;99.90
285;DHT22;127;48.770;9.212;2023-03-24T00:13:48;13.20;99.90
285;DHT22;127;48.770;9.212;2023-03-24T00:16:18;13.30;99.90
285;DHT22;127;48.770;9.212;2023-03-24T00:18:47;13.40;99.90
285;DHT22;127;48.770;9.212;2023-03-24T00:21:18;13.60;99.90
285;DHT22;127;48.770;9.212;2023-03-24T00:23:49;13.70;99.90
285;DHT22;127;48.770;9.212;2023-03-24T00:26:19;13.70;99.90
285;DHT22;127;48.770;9.212;2023-03-24T00:28:53;13.70;99.90
285;DHT22;127;48.770;9.212;2023-03-24T00:31:22;13.80;99.90
285;DHT22;127;48.770;9.212;2023-03-24T00:33:51;13.90;99.90
285;DHT22;127;48.770;9.212;2023-03-24T00:36:22;14.10;99.90
285;DHT22;127;48.770;9.212;2023-03-24T00:38:51;14.10;99.90
285;DHT22;127;48.770;9.212;2023-03-24T00:41:21;14.00;99.90
285;DHT22;127;48.770;9.212;2023-03-24T00:43:55;14.00;99.90
285;DHT22;127;48.770;9.212;2023-03-24T00:46:25;14.10;99.90
285;DHT22;127;48.770;9.212;2023-03-24T00:49:00;14.10;99.90
285;DHT22;127;48.770;9.212;2023-03-24T00:51:35;14.10;99.90
285;DHT22;127;48.770;9.212;2023-03-24T00:54:06;14.10;99.90
285;DHT22;127;48.770;9.212;2023-03-24T00:56:36;14.10;99.90
285;DHT22;127;48.770;9.212;2023-03-24T00:59:08;14.10;99.90
285;DHT22;127;48.770;9.212;2023-03-24T01:01:38;14.00;99.90
285;DHT22;127;48.770;9.212;2023-03-24T01:04:08;14.00;99.90
285;DHT22;127;48.770;9.212;2023-03-24T01:06:37;14.00;99.90
285;DHT22;127;48.770;9.212;2023-03-24T01:09:07;14.10;99.90
285;DHT22;127;48.770;9.212;2023-03-24T01:11:38;14.10;99.90
285;DHT22;127;48.770;9.212;2023-03-24T01:14:10;13.90;99.90
285;DHT22;127;48.770;9.212;2023-03-24T01:16:39;14.00;99.90
285;DHT22;127;48.770;9.212;2023-03-24T01:19:09;13.80;99.90
285;DHT22;127;48.770;9.212;2023-03-24T01:21:39;13.60;99.90
285;DHT22;127;48.770;9.212;2023-03-24T01:24:08;13.50;99.90
285;DHT22;127;48.770;9.212;2023-03-24T01:26:38;13.50;99.90
285;DHT22;127;48.770;9.212;2023-03-24T01:29:07;13.30;99.90
285;DHT22;127;48.770;9.212;2023-03-24T01:31:38;13.10;99.90
285;DHT22;127;48.770;9.212;2023-03-24T01:34:07;13.10;99.90
285;DHT22;127;48.770;9.212;2023-03-24T01:36:36;13.00;99.90
285;DHT22;127;48.770;9.212;2023-03-24T01:39:05;13.00;99.90
285;DHT22;127;48.770;9.212;2023-03-24T01:41:36;13.30;99.90
285;DHT22;127;48.770;9.212;2023-03-24T01:44:24;13.30;99.90
285;DHT22;127;48.770;9.212;2023-03-24T01:46:57;13.40;99.90
285;DHT22;127;48.770;9.212;2023-03-24T01:49:30;13.60;99.90
285;DHT22;127;48.770;9.212;2023-03-24T01:52:03;13.70;99.90
285;DHT22;127;48.770;9.212;2023-03-24T01:54:34;13.80;99.90
285;DHT22;127;48.770;9.212;2023-03-24T01:57:10;13.90;99.90
285;DHT22;127;48.770;9.212;2023-03-24T01:59:44;13.90;99.90
285;DHT22;127;48.770;9.212;2023-03-24T02:02:17;14.00;99.90
285;DHT22;127;48.770;9.212;2023-03-24T02:04:48;13.80;99.90
285;DHT22;127;48.770;9.212;2023-03-24T02:07:24;13.80;99.90
285;DHT22;127;48.770;9.212;2023-03-24T02:09:56;13.90;99.90
285;DHT22;127;48.770;9.212;2023-03-24T02:12:25;13.80;99.90
285;DHT22;127;48.770;9.212;2023-03-24T02:14:53;13.90;99.90
285;DHT22;127;48.770;9.212;2023-03-24T02:17:50;13.90;99.90
285;DHT22;127;48.770;9.212;2023-03-24T02:23:54;14.00;99.90
285;DHT22;127;48.770;9.212;2023-03-24T02:26:45;14.10;99.90
285;DHT22;127;48.770;9.212;2023-03-24T02:38:48;14.20;99.90
285;DHT22;127;48.770;9.212;2023-03-24T02:41:25;14.40;99.90
285;DHT22;127;48.770;9.212;2023-03-24T02:44:02;14.40;99.90
285;DHT22;127;48.770;9.212;2023-03-24T02:46:35;14.30;99.90
285;DHT22;127;48.770;9.212;2023-03-24T02:49:12;14.40;99.90
285;DHT22;127;48.770;9.212;2023-03-24T02:51:50;14.50;99.90
285;DHT22;127;48.770;9.212;2023-03-24T02:54:24;14.60;99.90
285;DHT22;127;48.770;9.212;2023-03-24T02:57:01;14.70;99.90
285;DHT22;127;48.770;9.212;2023-03-24T02:59:35;14.80;99.90
285;DHT22;127;48.770;9.212;2023-03-24T03:02:08;14.80;99.90
285;DHT22;127;48.770;9.212;2023-03-24T03:04:42;14.90;99.90
285;DHT22;127;48.770;9.212;2023-03-24T03:07:18;15.00;99.90
285;DHT22;127;48.770;9.212;2023-03-24T03:09:51;14.90;99.90
285;DHT22;127;48.770;9.212;2023-03-24T03:12:25;14.80;99.90
285;DHT22;127;48.770;9.212;2023-03-24T03:14:57;14.90;99.90
285;DHT22;127;48.770;9.212;2023-03-24T03:17:31;14.90;99.90
285;DHT22;127;48.770;9.212;2023-03-24T03:20:07;14.80;99.90
285;DHT22;127;48.770;9.212;2023-03-24T03:22:40;14.80;99.90
285;DHT22;127;48.770;9.212;2023-03-24T03:25:12;14.80;99.90
285;DHT22;127;48.770;9.212;2023-03-24T03:27:46;14.90;99.90
285;DHT22;127;48.770;9.212;2023-03-24T03:30:21;15.00;99.90
285;DHT22;127;48.770;9.212;2023-03-24T03:32:55;14.90;99.90
285;DHT22;127;48.770;9.212;2023-03-24T03:35:31;14.90;99.90
285;DHT22;127;48.770;9.212;2023-03-24T03:38:08;14.80;99.90
285;DHT22;127;48.770;9.212;2023-03-24T03:40:42;14.80;99.90
285;DHT22;127;48.770;9.212;2023-03-24T03:43:19;14.80;99.90
285;DHT22;127;48.770;9.212;2023-03-24T03:45:48;14.90;99.90
285;DHT22;127;48.770;9.212;2023-03-24T03:48:17;14.80;99.90
285;DHT22;127;48.770;9.212;2023-03-24T03:50:46;14.80;99.90
285;DHT22;127;48.770;9.212;2023-03-24T03:53:19;14.80;99.90
285;DHT22;127;48.770;9.212;2023-03-24T03:55:48;14.90;99.90
285;DHT22;127;48.770;9.212;2023-03-24T03:58:19;14.80;99.90
285;DHT22;127;48.770;9.212;2023-03-24T04:00:48;14.80;99.90
285;DHT22;127;48.770;9.212;2023-03-24T04:03:37;14.90;99.90
285;DHT22;127;48.770;9.212;2023-03-24T04:06:16;14.80;99.90
285;DHT22;127;48.770;9.212;2023-03-24T04:08:51;14.80;99.90
285;DHT22;127;48.770;9.212;2023-03-24T04:11:45;14.80;99.90
285;DHT22;127;48.770;9.212;2023-03-24T04:14:40;14.70;99.90
285;DHT22;127;48.770;9.212;2023-03-24T04:17:15;14.60;99.90
285;DHT22;127;48.770;9.212;2023-03-24T04:20:00;14.60;99.90
285;DHT22;127;48.770;9.212;2023-03-24T04:22:42;14.60;99.90
285;DHT22;127;48.770;9.212;2023-03-24T04:25:18;14.60;99.90
285;DHT22;127;48.770;9.212;2023-03-24T04:27:53;14.60;99.90
285;DHT22;127;48.770;9.212;2023-03-24T04:30:33;14.60;99.90
285;DHT22;127;48.770;9.212;2023-03-24T04:33:08;14.50;99.90
285;DHT22;127;48.770;9.212;2023-03-24T04:35:46;14.60;99.90
285;DHT22;127;48.770;9.212;2023-03-24T04:38:19;14.70;99.90
285;DHT22;127;48.770;9.212;2023-03-24T04:40:52;14.70;99.90
285;DHT22;127;48.770;9.212;2023-03-24T04:43:25;14.70;99.90
285;DHT22;127;48.770;9.212;2023-03-24T04:46:04;14.70;99.90
285;DHT22;127;48.770;9.212;2023-03-24T04:48:34;14.70;99.90
285;DHT22;127;48.770;9.212;2023-03-24T04:51:03;14.80;99.90
285;DHT22;127;48.770;9.212;2023-03-24T04:53:32;14.90;99.90
285;DHT22;127;48.770;9.212;2023-03-24T04:56:14;14.90;99.90
285;DHT22;127;48.770;9.212;2023-03-24T04:58:46;14.90;99.90
285;DHT22;127;48.770;9.212;2023-03-24T05:01:17;14.90;99.90
285;DHT22;127;48.770;9.212;2023-03-24T05:03:46;14.90;99.90
285;DHT22;127;48.770;9.212;2023-03-24T05:06:15;14.90;99.90
285;DHT22;127;48.770;9.212;2023-03-24T05:08:44;14.80;99.90
285;DHT22;127;48.770;9.212;2023-03-24T05:11:13;14.90;99.90
285;DHT22;127;48.770;9.212;2023-03-24T05:13:42;14.90;99.90
285;DHT22;127;48.770;9.212;2023-03-24T05:16:12;14.90;99.90
285;DHT22;127;48.770;9.212;2023-03-24T05:18:43;15.00;99.90
285;DHT22;127;48.770;9.212;2023-03-24T05:21:12;15.00;99.90
285;DHT22;127;48.770;9.212;2023-03-24T05:23:40;15.00;99.90
285;DHT22;127;48.770;9.212;2023-03-24T05:26:09;15.00;99.90
285;DHT22;127;48.770;9.212;2023-03-24T05:28:38;15.00;99.90
285;DHT22;127;48.770;9.212;2023-03-24T05:31:06;15.00;99.90
285;DHT22;127;48.770;9.212;2023-03-24T05:33:35;14.90;99.90
285;DHT22;127;48.770;9.212;2023-03-24T05:36:07;14.70;99.90
285;DHT22;127;48.770;9.212;2023-03-24T05:38:36;14.30;99.90
285;DHT22;127;48.770;9.212;2023-03-24T05:41:06;14.00;99.90
285;DHT22;127;48.770;9.212;2023-03-24T05:43:34;13.80;99.90
285;DHT22;127;48.770;9.212;2023-03-24T05:46:03;13.50;99.90
285;DHT22;127;48.770;9.212;2023-03-24T05:48:32;13.40;99.90
285;DHT22;127;48.770;9.212;2023-03-24T05:51:00;13.30;99.90
285;DHT22;127;48.770;9.212;2023-03-24T05:53:32;13.20;99.90
285;DHT22;127;48.770;9.212;2023-03-24T05:56:00;13.10;99.90
285;DHT22;127;48.770;9.212;2023-03-24T05:58:30;13.10;99.90
285;DHT22;127;48.770;9.212;2023-03-24T06:01:05;13.00;99.90
285;DHT22;127;48.770;9.212;2023-03-24T06:03:34;13.10;99.90
285;DHT22;127;48.770;9.212;2023-03-24T06:06:06;13.00;99.90
285;DHT22;127;48.770;9.212;2023-03-24T06:08:41;12.90;99.90
285;DHT22;127;48.770;9.212;2023-03-24T06:11:10;12.90;99.90
285;DHT22;127;48.770;9.212;2023-03-24T06:13:39;12.90;99.90
285;DHT22;127;48.770;9.212;2023-03-24T06:16:08;12.90;99.90
285;DHT22;127;48.770;9.212;2023-03-24T06:18:37;12.80;99.90
285;DHT22;127;48.770;9.212;2023-03-24T06:21:07;12.80;99.90
285;DHT22;127;48.770;9.212;2023-03-24T06:23:36;12.80;99.90
285;DHT22;127;48.770;9.212;2023-03-24T06:26:10;12.80;99.90
285;DHT22;127;48.770;9.212;2023-03-24T06:28:40;12.90;99.90
285;DHT22;127;48.770;9.212;2023-03-24T06:31:09;12.90;99.90
285;DHT22;127;48.770;9.212;2023-03-24T06:33:39;12.90;99.90
285;DHT22;127;48.770;9.212;2023-03-24T06:36:09;13.00;99.90
285;DHT22;127;48.770;9.212;2023-03-24T06:38:39;13.10;99.90
285;DHT22;127;48.770;9.212;2023-03-24T06:41:10;13.10;99.90
285;DHT22;127;48.770;9.212;2023-03-24T06:43:39;13.00;99.90
285;DHT22;127;48.770;9.212;2023-03-24T06:46:07;13.00;99.90
285;DHT22;127;48.770;9.212;2023-03-24T06:48:36;13.00;99.90
285;DHT22;127;48.770;9.212;2023-03-24T06:51:06;13.00;99.90
285;DHT22;127;48.770;9.212;2023-03-24T06:53:34;13.00;99.90
285;DHT22;127;48.770;9.212;2023-03-24T06:56:06;13.10;99.90
285;DHT22;127;48.770;9.212;2023-03-24T06:58:37;13.00;99.90
285;DHT22;127;48.770;9.212;2023-03-24T07:01:06;13.00;99.90
285;DHT22;127;48.770;9.212;2023-03-24T07:03:36;13.00;99.90
285;DHT22;127;48.770;9.212;2023-03-24T07:06:06;13.00;99.90
285;DHT22;127;48.770;9.212;2023-03-24T07:08:35;13.00;99.90
285;DHT22;127;48.770;9.212;2023-03-24T07:11:05;12.90;99.90
285;DHT22;127;48.770;9.212;2023-03-24T07:13:37;12.90;99.90
285;DHT22;127;48.770;9.212;2023-03-24T07:16:06;13.00;99.90
285;DHT22;127;48.770;9.212;2023-03-24T07:18:35;12.90;99.90
285;DHT22;127;48.770;9.212;2023-03-24T07:21:04;12.80;99.90
285;DHT22;127;48.770;9.212;2023-03-24T07:23:33;12.70;99.90
285;DHT22;127;48.770;9.212;2023-03-24T07:26:02;12.50;99.90
285;DHT22;127;48.770;9.212;2023-03-24T07:28:31;12.30;99.90
285;DHT22;127;48.770;9.212;2023-03-24T07:31:04;12.20;99.90
285;DHT22;127;48.770;9.212;2023-03-24T07:33:36;12.10;99.90
285;DHT22;127;48.770;9.212;2023-03-24T07:36:06;12.00;99.90
285;DHT22;127;48.770;9.212;2023-03-24T07:38:35;12.00;99.90
285;DHT22;127;48.770;9.212;2023-03-24T07:41:04;11.90;1.00
285;DHT22;127;48.770;9.212;2023-03-24T07:43:32;11.80;1.00
285;DHT22;127;48.770;9.212;2023-03-24T07:46:04;11.80;1.00
285;DHT22;127;48.770;9.212;2023-03-24T07:48:32;11.80;1.00
285;DHT22;127;48.770;9.212;2023-03-24T07:51:01;11.80;1.00
285;DHT22;127;48.770;9.212;2023-03-24T07:53:30;11.80;1.00
285;DHT22;127;48.770;9.212;2023-03-24T07:55:59;11.80;1.00
285;DHT22;127;48.770;9.212;2023-03-24T07:58:27;11.70;1.00
285;DHT22;127;48.770;9.212;2023-03-24T08:00:56;11.80;1.00
285;DHT22;127;48.770;9.212;2023-03-24T08:03:27;11.80;1.00
285;DHT22;127;48.770;9.212;2023-03-24T08:05:56;11.70;1.00
285;DHT22;127;48.770;9.212;2023-03-24T08:08:25;11.70;1.00
285;DHT22;127;48.770;9.212;2023-03-24T08:10:54;11.70;1.00
285;DHT22;127;48.770;9.212;2023-03-24T08:13:23;11.70;1.00
285;DHT22;127;48.770;9.212;2023-03-24T08:15:51;11.80;1.00
285;DHT22;127;48.770;9.212;2023-03-24T08:18:21;11.80;1.00
285;DHT22;127;48.770;9.212;2023-03-24T08:20:54;11.80;1.00
285;DHT22;127;48.770;9.212;2023-03-24T08:23:24;11.80;1.00
285;DHT22;127;48.770;9.212;2023-03-24T08:25:52;11.90;1.00
285;DHT22;127;48.770;9.212;2023-03-24T08:28:21;11.90;1.00
285;DHT22;127;48.770;9.212;2023-03-24T08:30:50;11.90;1.00
285;DHT22;127;48.770;9.212;2023-03-24T08:33:19;11.90;1.00
285;DHT22;127;48.770;9.212;2023-03-24T08:35:47;11.90;1.00
285;DHT22;127;48.770;9.212;2023-03-24T08:38:24;12.00;1.00
285;DHT22;127;48.770;9.212;2023-03-24T08:40:55;11.90;1.00
285;DHT22;127;48.770;9.212;2023-03-24T08:43:27;12.00;1.00
285;DHT22;127;48.770;9.212;2023-03-24T08:45:56;12.00;1.00
285;DHT22;127;48.770;9.212;2023-03-24T08:48:26;12.00;1.00
285;DHT22;127;48.770;9.212;2023-03-24T08:50:55;12.10;1.00
285;DHT22;127;48.770;9.212;2023-03-24T08:53:26;12.20;1.00
285;DHT22;127;48.770;9.212;2023-03-24T08:55:55;12.20;1.00
285;DHT22;127;48.770;9.212;2023-03-24T08:58:23;12.20;1.00
285;DHT22;127;48.770;9.212;2023-03-24T09:00:52;12.20;1.00
285;DHT22;127;48.770;9.212;2023-03-24T09:03:21;12.30;1.00
285;DHT22;127;48.770;9.212;2023-03-24T09:05:54;12.40;1.00
285;DHT22;127;48.770;9.212;2023-03-24T09:08:26;12.50;1.00
285;DHT22;127;48.770;9.212;2023-03-24T09:10:56;12.60;1.00
285;DHT22;127;48.770;9.212;2023-03-24T09:13:25;12.70;99.90
285;DHT22;127;48.770;9.212;2023-03-24T09:15:58;12.70;99.90
285;DHT22;127;48.770;9.212;2023-03-24T09:18:27;12.80;99.90
285;DHT22;127;48.770;9.212;2023-03-24T09:20:56;12.90;99.90
285;DHT22;127;48.770;9.212;2023-03-24T09:23:27;13.00;99.90
285;DHT22;127;48.770;9.212;2023-03-24T09:25:56;13.00;99.90
285;DHT22;127;48.770;9.212;2023-03-24T09:28:25;13.10;99.90
285;DHT22;127;48.770;9.212;2023-03-24T09:30:56;13.10;99.90
285;DHT22;127;48.770;9.212;2023-03-24T09:33:25;13.30;99.90
285;DHT22;127;48.770;9.212;2023-03-24T09:35:55;13.40;99.90
285;DHT22;127;48.770;9.212;2023-03-24T09:38:27;13.40;99.90
285;DHT22;127;48.770;9.212;2023-03-24T09:40:57;13.40;99.90
285;DHT22;127;48.770;9.212;2023-03-24T09:43:31;13.60;99.90
285;DHT22;127;48.770;9.212;2023-03-24T09:46:04;13.70;99.90
285;DHT22;127;48.770;9.212;2023-03-24T09:48:37;14.00;99.90
285;DHT22;127;48.770;9.212;2023-03-24T09:51:11;14.30;99.90
285;DHT22;127;48.770;9.212;2023-03-24T09:53:49;14.40;99.90
285;DHT22;127;48.770;9.212;2023-03-24T09:56:21;14.30;99.90
285;DHT22;127;48.770;9.212;2023-03-24T09:59:00;14.40;99.90
285;DHT22;127;48.770;9.212;2023-03-24T10:01:29;14.40;99.90
285;DHT22;127;48.770;9.212;2023-03-24T10:03:59;14.70;99.90
285;DHT22;127;48.770;9.212;2023-03-24T10:06:29;15.10;99.90
285;DHT22;127;48.770;9.212;2023-03-24T10:09:14;15.20;99.90
285;DHT22;127;48.770;9.212;2023-03-24T10:11:47;15.50;99.90
285;DHT22;127;48.770;9.212;2023-03-24T10:14:27;16.20;99.90
285;DHT22;127;48.770;9.212;2023-03-24T10:17:04;16.70;99.90
285;DHT22;127;48.770;9.212;2023-03-24T10:19:39;16.10;99.90
285;DHT22;127;48.770;9.212;2023-03-24T10:22:16;16.60;99.90
285;DHT22;127;48.770;9.212;2023-03-24T10:24:54;16.40;99.90
285;DHT22;127;48.770;9.212;2023-03-24T10:27:28;16.40;99.90
285;DHT22;127;48.770;9.212;2023-03-24T10:30:02;16.20;99.90
285;DHT22;127;48.770;9.212;2023-03-24T10:32:33;15.90;99.90
285;DHT22;127;48.770;9.212;2023-03-24T10:35:05;15.50;99.90
285;DHT22;127;48.770;9.212;2023-03-24T10:37:36;15.80;99.90
285;DHT22;127;48.770;9.212;2023-03-24T10:40:16;16.00;99.90
285;DHT22;127;48.770;9.212;2023-03-24T10:42:48;16.10;99.90
285;DHT22;127;48.770;9.212;2023-03-24T10:45:24;16.20;99.90
285;DHT22;127;48.770;9.212;2023-03-24T10:47:56;16.10;99.90
285;DHT22;127;48.770;9.212;2023-03-24T10:50:27;15.90;99.90
285;DHT22;127;48.770;9.212;2023-03-24T10:52:56;16.00;99.90
285;DHT22;127;48.770;9.212;2023-03-24T10:55:35;15.70;99.90
285;DHT22;127;48.770;9.212;2023-03-24T10:58:11;15.90;99.90
285;DHT22;127;48.770;9.212;2023-03-24T11:00:43;15.90;99.90
285;DHT22;127;48.770;9.212;2023-03-24T11:03:15;15.60;99.90
285;DHT22;127;48.770;9.212;2023-03-24T11:05:44;15.70;99.90
285;DHT22;127;48.770;9.212;2023-03-24T11:08:25;16.00;99.90
285;DHT22;127;48.770;9.212;2023-03-24T11:10:57;16.00;99.90
285;DHT22;127;48.770;9.212;2023-03-24T11:13:29;15.80;99.90
285;DHT22;127;48.770;9.212;2023-03-24T11:16:07;15.90;99.90
285;DHT22;127;48.770;9.212;2023-03-24T11:18:54;16.20;99.90
285;DHT22;127;48.770;9.212;2023-03-24T11:21:23;17.40;99.90
285;DHT22;127;48.770;9.212;2023-03-24T11:23:52;17.30;99.90
285;DHT22;127;48.770;9.212;2023-03-24T11:26:29;16.60;99.90
285;DHT22;127;48.770;9.212;2023-03-24T11:28:59;16.20;99.90
285;DHT22;127;48.770;9.212;2023-03-24T11:31:30;16.70;99.90
285;DHT22;127;48.770;9.212;2023-03-24T11:34:07;16.80;99.90
285;DHT22;127;48.770;9.212;2023-03-24T11:36:47;16.70;99.90
285;DHT22;127;48.770;9.212;2023-03-24T11:39:19;16.80;99.90
285;DHT22;127;48.770;9.212;2023-03-24T11:42:04;16.40;99.90
285;DHT22;127;48.770;9.212;2023-03-24T11:44:43;16.60;99.90
285;DHT22;127;48.770;9.212;2023-03-24T11:47:17;16.60;99.90
285;DHT22;127;48.770;9.212;2023-03-24T11:49:53;16.40;99.90
285;DHT22;127;48.770;9.212;2023-03-24T11:52:29;16.20;99.90
285;DHT22;127;48.770;9.212;2023-03-24T11:54:59;16.20;99.90
285;DHT22;127;48.770;9.212;2023-03-24T11:57:43;16.10;99.90
285;DHT22;127;48.770;9.212;2023-03-24T12:00:19;15.90;99.90
285;DHT22;127;48.770;9.212;2023-03-24T12:03:06;16.00;99.90
285;DHT22;127;48.770;9.212;2023-03-24T12:05:40;16.20;99.90
285;DHT22;127;48.770;9.212;2023-03-24T12:08:25;16.10;99.90
285;DHT22;127;48.770;9.212;2023-03-24T12:11:13;16.10;99.90
285;DHT22;127;48.770;9.212;2023-03-24T12:13:47;15.90;99.90
285;DHT22;127;48.770;9.212;2023-03-24T12:16:27;15.70;99.90
285;DHT22;127;48.770;9.212;2023-03-24T12:22:06;15.80;99.90
285;DHT22;127;48.770;9.212;2023-03-24T12:25:03;15.80;99.90
285;DHT22;127;48.770;9.212;2023-03-24T12:27:42;15.90;99.90
285;DHT22;127;48.770;9.212;2023-03-24T12:30:20;16.20;99.90
285;DHT22;127;48.770;9.212;2023-03-24T12:33:01;16.00;99.90
285;DHT22;127;48.770;9.212;2023-03-24T12:36:07;16.10;99.90
285;DHT22;127;48.770;9.212;2023-03-24T12:38:47;15.90;99.90
285;DHT22;127;48.770;9.212;2023-03-24T12:41:50;16.20;99.90
285;DHT22;127;48.770;9.212;2023-03-24T12:50:29;15.90;99.90
285;DHT22;127;48.770;9.212;2023-03-24T12:53:08;16.00;99.90
285;DHT22;127;48.770;9.212;2023-03-24T12:55:43;16.10;99.90
285;DHT22;127;48.770;9.212;2023-03-24T12:58:18;15.90;99.90
285;DHT22;127;48.770;9.212;2023-03-24T13:00:59;15.80;99.90
285;DHT22;127;48.770;9.212;2023-03-24T13:03:37;15.90;99.90
285;DHT22;127;48.770;9.212;2023-03-24T13:06:14;16.00;99.90
285;DHT22;127;48.770;9.212;2023-03-24T13:08:55;16.00;99.90
285;DHT22;127;48.770;9.212;2023-03-24T13:11:35;16.00;99.90
285;DHT22;127;48.770;9.212;2023-03-24T13:14:11;15.90;99.90
285;DHT22;127;48.770;9.212;2023-03-24T13:16:41;15.70;99.90
285;DHT22;127;48.770;9.212;2023-03-24T13:19:18;15.60;99.90
285;DHT22;127;48.770;9.212;2023-03-24T13:21:49;15.40;99.90
285;DHT22;127;48.770;9.212;2023-03-24T13:24:18;15.40;99.90
285;DHT22;127;48.770;9.212;2023-03-24T13:26:55;15.20;99.90
285;DHT22;127;48.770;9.212;2023-03-24T13:29:40;15.20;99.90
285;DHT22;127;48.770;9.212;2023-03-24T13:32:17;15.00;99.90
285;DHT22;127;48.770;9.212;2023-03-24T13:34:55;14.90;99.90
285;DHT22;127;48.770;9.212;2023-03-24T13:37:30;14.70;99.90
285;DHT22;127;48.770;9.212;2023-03-24T13:40:04;14.70;99.90
285;DHT22;127;48.770;9.212;2023-03-24T13:42:40;14.70;99.90
285;DHT22;127;48.770;9.212;2023-03-24T13:45:25;14.70;99.90
285;DHT22;127;48.770;9.212;2023-03-24T13:48:03;14.70;99.90
285;DHT22;127;48.770;9.212;2023-03-24T13:50:37;14.70;99.90
285;DHT22;127;48.770;9.212;2023-03-24T13:53:13;14.60;99.90
285;DHT22;127;48.770;9.212;2023-03-24T13:55:47;14.60;99.90
285;DHT22;127;48.770;9.212;2023-03-24T13:58:19;14.70;99.90
285;DHT22;127;48.770;9.212;2023-03-24T14:01:04;14.70;99.90
285;DHT22;127;48.770;9.212;2023-03-24T14:03:34;14.80;99.90
285;DHT22;127;48.770;9.212;2023-03-24T14:06:06;14.90;99.90
285;DHT22;127;48.770;9.212;2023-03-24T14:08:52;15.00;99.90
285;DHT22;127;48.770;9.212;2023-03-24T14:11:43;14.80;99.90
285;DHT22;127;48.770;9.212;2023-03-24T14:14:20;14.90;99.90
285;DHT22;127;48.770;9.212;2023-03-24T14:16:51;15.00;99.90
285;DHT22;127;48.770;9.212;2023-03-24T14:19:24;15.00;99.90
285;DHT22;127;48.770;9.212;2023-03-24T14:22:08;14.90;99.90
285;DHT22;127;48.770;9.212;2023-03-24T14:24:38;14.70;99.90
285;DHT22;127;48.770;9.212;2023-03-24T14:27:29;14.70;99.90
285;DHT22;127;48.770;9.212;2023-03-24T14:30:00;14.40;99.90
285;DHT22;127;48.770;9.212;2023-03-24T14:32:36;13.90;99.90
285;DHT22;127;48.770;9.212;2023-03-24T14:35:22;13.50;99.90
285;DHT22;127;48.770;9.212;2023-03-24T14:37:56;13.10;99.90
285;DHT22;127;48.770;9.212;2023-03-24T14:40:28;12.90;99.90
285;DHT22;127;48.770;9.212;2023-03-24T14:43:20;12.80;99.90
285;DHT22;127;48.770;9.212;2023-03-24T14:45:55;12.80;99.90
285;DHT22;127;48.770;9.212;2023-03-24T14:48:35;12.80;99.90
285;DHT22;127;48.770;9.212;2023-03-24T14:51:27;12.80;99.90
285;DHT22;127;48.770;9.212;2023-03-24T14:54:05;12.70;99.90
285;DHT22;127;48.770;9.212;2023-03-24T14:56:37;12.40;99.90
285;DHT22;127;48.770;9.212;2023-03-24T14:59:10;12.20;99.90
285;DHT22;127;48.770;9.212;2023-03-24T15:01:44;12.00;99.90
285;DHT22;127;48.770;9.212;2023-03-24T15:04:14;11.80;99.90
285;DHT22;127;48.770;9.212;2023-03-24T15:06:44;11.80;99.90
285;DHT22;127;48.770;9.212;2023-03-24T15:09:16;11.70;99.90
285;DHT22;127;48.770;9.212;2023-03-24T15:11:47;11.50;99.90
285;DHT22;127;48.770;9.212;2023-03-24T15:14:21;11.40;99.90
285;DHT22;127;48.770;9.212;2023-03-24T15:16:53;11.30;99.90
285;DHT22;127;48.770;9.212;2023-03-24T15:19:24;11.10;1.00
285;DHT22;127;48.770;9.212;2023-03-24T15:21:59;11.00;1.00
285;DHT22;127;48.770;9.212;2023-03-24T15:24:34;11.00;1.00
285;DHT22;127;48.770;9.212;2023-03-24T15:27:27;11.10;1.00
285;DHT22;127;48.770;9.212;2023-03-24T15:29:58;11.20;1.00
285;DHT22;127;48.770;9.212;2023-03-24T15:32:28;11.20;1.00
285;DHT22;127;48.770;9.212;2023-03-24T15:35:05;11.10;1.00
285;DHT22;127;48.770;9.212;2023-03-24T15:37:35;10.80;1.00
285;DHT22;127;48.770;9.212;2023-03-24T15:40:33;10.80;1.00
285;DHT22;127;48.770;9.212;2023-03-24T15:43:04;10.80;1.00
285;DHT22;127;48.770;9.212;2023-03-24T15:45:36;10.80;1.00
285;DHT22;127;48.770;9.212;2023-03-24T15:48:07;10.80;1.00
285;DHT22;127;48.770;9.212;2023-03-24T15:50:52;10.90;1.00
285;DHT22;127;48.770;9.212;2023-03-24T15:53:24;10.90;1.00
285;DHT22;127;48.770;9.212;2023-03-24T15:56:05;10.90;1.00
285;DHT22;127;48.770;9.212;2023-03-24T15:58:50;10.90;1.00
285;DHT22;127;48.770;9.212;2023-03-24T16:01:24;10.90;99.90
285;DHT22;127;48.770;9.212;2023-03-24T16:03:56;10.90;99.90
285;DHT22;127;48.770;9.212;2023-03-24T16:06:27;10.80;99.90
285;DHT22;127;48.770;9.212;2023-03-24T16:09:00;10.90;1.00
285;DHT22;127;48.770;9.212;2023-03-24T16:11:32;10.90;99.90
285;DHT22;127;48.770;9.212;2023-03-24T16:14:01;11.00;99.90
285;DHT22;127;48.770;9.212;2023-03-24T16:16:38;11.00;99.90
285;DHT22;127;48.770;9.212;2023-03-24T16:19:08;11.00;99.90
285;DHT22;127;48.770;9.212;2023-03-24T16:21:38;11.10;99.90
285;DHT22;127;48.770;9.212;2023-03-24T16:24:06;11.10;99.90
285;DHT22;127;48.770;9.212;2023-03-24T16:26:37;11.20;99.90
285;DHT22;127;48.770;9.212;2023-03-24T16:29:14;11.10;99.90
285;DHT22;127;48.770;9.212;2023-03-24T16:31:43;11.20;99.90
285;DHT22;127;48.770;9.212;2023-03-24T16:34:13;11.30;99.90
285;DHT22;127;48.770;9.212;2023-03-24T16:36:43;11.60;99.90
285;DHT22;127;48.770;9.212;2023-03-24T16:39:14;11.80;99.90
285;DHT22;127;48.770;9.212;2023-03-24T16:41:46;12.10;99.90
285;DHT22;127;48.770;9.212;2023-03-24T16:44:15;12.40;99.90
285;DHT22;127;48.770;9.212;2023-03-24T16:46:45;12.70;99.90
285;DHT22;127;48.770;9.212;2023-03-24T16:49:16;12.60;99.90
285;DHT22;127;48.770;9.212;2023-03-24T16:51:46;12.80;99.90
285;DHT22;127;48.770;9.212;2023-03-24T16:54:15;12.70;99.90
285;DHT22;127;48.770;9.212;2023-03-24T16:56:47;12.90;99.90
285;DHT22;127;48.770;9.212;2023-03-24T16:59:15;13.20;99.90
285;DHT22;127;48.770;9.212;2023-03-24T17:01:45;13.30;99.90
285;DHT22;127;48.770;9.212;2023-03-24T17:04:15;13.20;99.90
285;DHT22;127;48.770;9.212;2023-03-24T17:06:46;12.90;99.90
285;DHT22;127;48.770;9.212;2023-03-24T17:09:17;12.90;99.90
285;DHT22;127;48.770;9.212;2023-03-24T17:11:51;12.80;99.90
285;DHT22;127;48.770;9.212;2023-03-24T17:14:20;12.80;99.90
285;DHT22;127;48.770;9.212;2023-03-24T17:16:49;13.00;99.90
285;DHT22;127;48.770;9.212;2023-03-24T17:19:19;13.00;99.90
285;DHT22;127;48.770;9.212;2023-03-24T17:21:50;12.90;99.90
285;DHT22;127;48.770;9.212;2023-03-24T17:24:20;12.80;99.90
285;DHT22;127;48.770;9.212;2023-03-24T17:26:52;12.60;99.90
285;DHT22;127;48.770;9.212;2023-03-24T17:29:21;12.60;99.90
285;DHT22;127;48.770;9.212;2023-03-24T17:31:50;12.30;99.90
285;DHT22;127;48.770;9.212;2023-03-24T17:34:20;12.20;99.90
285;DHT22;127;48.770;9.212;2023-03-24T17:36:49;12.00;99.90
285;DHT22;127;48.770;9.212;2023-03-24T17:39:18;11.80;99.90